台北 の空港の天気 - METARとTAF

台湾桃園国際空港 ( RCTP / TPE ) - 台湾 台北市
飛行場実況気象(Metar)
観測時間08/05 06:30 CST (08/04 22:30 UTC)
風向・風速不定 1m/s
視程10km以上
天気現象
少しの雲 雲底高度 460m
全天の8割程度の雲 雲底高度 5490m
気温27℃
湿度100%
気圧1010hPa
METARRCTP 042230Z VRB01KT 9999 FEW015 BKN180 27/27 Q1010 NOSIG RMK A2984
過去の天気等 Google飛行場航空写真 Wunderground天気予報

過去48時間のMETAR

飛行場予報(TAF)
発表時間: 8/05 01:00 CST (8/04 17:00 UTC)
予報対象時間: 5日2時 CST ~ 6日8時 CST
風向・風速南南西 3m/s
視程6000m
少しの雲 雲底高度 460m
全天の8割程度の雲 雲底高度 980m
5日2時 CST ~ 5日8時 CST に一時的に
風向・風速東 3m/s
視程4000m
天気現象しゅう雨
少しの雲 雲底高度 240m
全天の8割程度の雲 雲底高度 520m
全天の8割程度の雲 雲底高度 910m
5日8時 CST ~ 5日10時 CST に徐々に
風向・風速北 3m/s
5日12時 CST ~ 5日18時 CST に一時的に
風向・風速北 5m/s
視程5000m
天気現象しゅう雨
少しの雲 雲底高度 370m
少しの塔状積雲 雲底高度 460m
全天の8割程度の雲 雲底高度 610m
5日22時 CST ~ 5日24時 CST に徐々に
風向・風速南南西 3m/s
TAF RCTP 041700Z 0418/0524 20005KT 6000 FEW015 BKN032
TEMPO 0418/0424 10005KT 4000 SHRA FEW008 BKN017 BKN030
BECMG 0500/0502 01005KT
TEMPO 0504/0510 35010KT 5000 SHRA FEW012 FEW015TCU BKN020
BECMG 0514/0516 20005KT